sensor_id;sensor_type;location;lat;lon;timestamp;P1;durP1;ratioP1;P2;durP2;ratioP2
22270;SDS011;11304;53.520;10.104;2024-03-29T00:02:11;3.80;;;1.25;;
22270;SDS011;11304;53.520;10.104;2024-03-29T00:04:37;5.70;;;1.20;;
22270;SDS011;11304;53.520;10.104;2024-03-29T00:07:03;4.53;;;1.17;;
22270;SDS011;11304;53.520;10.104;2024-03-29T00:09:29;4.40;;;1.20;;
22270;SDS011;11304;53.520;10.104;2024-03-29T00:11:55;2.97;;;1.30;;
22270;SDS011;11304;53.520;10.104;2024-03-29T00:14:21;4.28;;;1.20;;
22270;SDS011;11304;53.520;10.104;2024-03-29T00:16:47;2.97;;;1.20;;
22270;SDS011;11304;53.520;10.104;2024-03-29T00:19:13;3.20;;;1.02;;
22270;SDS011;11304;53.520;10.104;2024-03-29T00:21:39;3.35;;;1.20;;
22270;SDS011;11304;53.520;10.104;2024-03-29T00:24:05;4.93;;;1.40;;
22270;SDS011;11304;53.520;10.104;2024-03-29T00:26:31;6.25;;;1.55;;
22270;SDS011;11304;53.520;10.104;2024-03-29T00:28:57;3.03;;;1.17;;
22270;SDS011;11304;53.520;10.104;2024-03-29T00:31:23;2.80;;;1.25;;
22270;SDS011;11304;53.520;10.104;2024-03-29T00:33:49;3.45;;;1.20;;
22270;SDS011;11304;53.520;10.104;2024-03-29T00:36:15;2.80;;;1.00;;
22270;SDS011;11304;53.520;10.104;2024-03-29T00:38:41;2.42;;;0.88;;
22270;SDS011;11304;53.520;10.104;2024-03-29T00:41:07;4.50;;;1.35;;
22270;SDS011;11304;53.520;10.104;2024-03-29T00:43:33;5.38;;;1.25;;
22270;SDS011;11304;53.520;10.104;2024-03-29T00:45:59;5.55;;;1.40;;
22270;SDS011;11304;53.520;10.104;2024-03-29T00:48:25;3.47;;;1.10;;
22270;SDS011;11304;53.520;10.104;2024-03-29T00:50:51;3.72;;;1.10;;
22270;SDS011;11304;53.520;10.104;2024-03-29T00:53:17;2.72;;;0.90;;
22270;SDS011;11304;53.520;10.104;2024-03-29T00:55:43;1.92;;;0.80;;
22270;SDS011;11304;53.520;10.104;2024-03-29T00:58:09;8.07;;;1.50;;
22270;SDS011;11304;53.520;10.104;2024-03-29T01:00:36;2.92;;;1.02;;
22270;SDS011;11304;53.520;10.104;2024-03-29T01:03:02;3.50;;;1.05;;
22270;SDS011;11304;53.520;10.104;2024-03-29T01:05:28;3.08;;;1.27;;
22270;SDS011;11304;53.520;10.104;2024-03-29T01:07:54;6.68;;;1.27;;
22270;SDS011;11304;53.520;10.104;2024-03-29T01:10:20;2.65;;;0.90;;
22270;SDS011;11304;53.520;10.104;2024-03-29T01:12:47;4.70;;;1.00;;
22270;SDS011;11304;53.520;10.104;2024-03-29T01:15:13;2.97;;;1.05;;
22270;SDS011;11304;53.520;10.104;2024-03-29T01:17:39;4.63;;;1.02;;
22270;SDS011;11304;53.520;10.104;2024-03-29T01:20:05;2.08;;;0.88;;
22270;SDS011;11304;53.520;10.104;2024-03-29T01:22:33;3.80;;;1.05;;
22270;SDS011;11304;53.520;10.104;2024-03-29T01:24:59;4.60;;;0.90;;
22270;SDS011;11304;53.520;10.104;2024-03-29T01:27:26;2.20;;;1.08;;
22270;SDS011;11304;53.520;10.104;2024-03-29T01:29:52;2.40;;;0.93;;
22270;SDS011;11304;53.520;10.104;2024-03-29T01:32:18;7.13;;;1.50;;
22270;SDS011;11304;53.520;10.104;2024-03-29T01:34:44;3.08;;;1.08;;
22270;SDS011;11304;53.520;10.104;2024-03-29T01:37:10;3.45;;;1.10;;
22270;SDS011;11304;53.520;10.104;2024-03-29T01:39:36;4.50;;;1.20;;
22270;SDS011;11304;53.520;10.104;2024-03-29T01:42:02;3.17;;;1.10;;
22270;SDS011;11304;53.520;10.104;2024-03-29T01:44:28;3.80;;;1.10;;
22270;SDS011;11304;53.520;10.104;2024-03-29T01:46:54;5.95;;;1.10;;
22270;SDS011;11304;53.520;10.104;2024-03-29T01:49:21;6.43;;;1.65;;
22270;SDS011;11304;53.520;10.104;2024-03-29T01:51:47;3.17;;;1.17;;
22270;SDS011;11304;53.520;10.104;2024-03-29T01:54:13;4.20;;;0.98;;
22270;SDS011;11304;53.520;10.104;2024-03-29T01:56:39;1.80;;;0.95;;
22270;SDS011;11304;53.520;10.104;2024-03-29T01:59:08;1.33;;;0.93;;
22270;SDS011;11304;53.520;10.104;2024-03-29T02:01:36;4.25;;;0.85;;
22270;SDS011;11304;53.520;10.104;2024-03-29T02:04:03;3.53;;;0.85;;
22270;SDS011;11304;53.520;10.104;2024-03-29T02:09:33;2.53;;;0.93;;
22270;SDS011;11304;53.520;10.104;2024-03-29T02:11:59;5.10;;;0.73;;
22270;SDS011;11304;53.520;10.104;2024-03-29T02:14:25;3.35;;;1.13;;
22270;SDS011;11304;53.520;10.104;2024-03-29T02:16:51;2.25;;;0.98;;
22270;SDS011;11304;53.520;10.104;2024-03-29T02:19:17;2.13;;;0.75;;
22270;SDS011;11304;53.520;10.104;2024-03-29T02:21:43;3.60;;;1.23;;
22270;SDS011;11304;53.520;10.104;2024-03-29T02:24:11;3.40;;;0.93;;
22270;SDS011;11304;53.520;10.104;2024-03-29T02:26:41;2.53;;;1.10;;
22270;SDS011;11304;53.520;10.104;2024-03-29T02:29:08;4.05;;;1.10;;
22270;SDS011;11304;53.520;10.104;2024-03-29T02:31:34;6.30;;;0.82;;
22270;SDS011;11304;53.520;10.104;2024-03-29T02:34:00;3.88;;;1.30;;
22270;SDS011;11304;53.520;10.104;2024-03-29T02:36:26;2.67;;;1.10;;
22270;SDS011;11304;53.520;10.104;2024-03-29T02:38:52;3.45;;;0.90;;
22270;SDS011;11304;53.520;10.104;2024-03-29T02:41:18;4.95;;;1.00;;
22270;SDS011;11304;53.520;10.104;2024-03-29T02:43:44;5.07;;;0.80;;
22270;SDS011;11304;53.520;10.104;2024-03-29T02:46:10;5.20;;;0.90;;
22270;SDS011;11304;53.520;10.104;2024-03-29T02:48:36;3.13;;;0.90;;
22270;SDS011;11304;53.520;10.104;2024-03-29T02:51:02;3.20;;;0.90;;
22270;SDS011;11304;53.520;10.104;2024-03-29T02:53:29;3.75;;;0.90;;
22270;SDS011;11304;53.520;10.104;2024-03-29T02:55:55;3.97;;;1.00;;
22270;SDS011;11304;53.520;10.104;2024-03-29T02:58:21;4.10;;;0.80;;
22270;SDS011;11304;53.520;10.104;2024-03-29T03:00:47;4.20;;;1.10;;
22270;SDS011;11304;53.520;10.104;2024-03-29T03:03:16;2.40;;;0.88;;
22270;SDS011;11304;53.520;10.104;2024-03-29T03:05:42;3.30;;;0.82;;
22270;SDS011;11304;53.520;10.104;2024-03-29T03:08:08;3.95;;;0.93;;
22270;SDS011;11304;53.520;10.104;2024-03-29T03:10:53;5.28;;;1.05;;
22270;SDS011;11304;53.520;10.104;2024-03-29T03:13:24;4.03;;;1.00;;
22270;SDS011;11304;53.520;10.104;2024-03-29T03:15:50;2.88;;;0.70;;
22270;SDS011;11304;53.520;10.104;2024-03-29T03:18:16;2.72;;;0.98;;
22270;SDS011;11304;53.520;10.104;2024-03-29T03:20:42;4.53;;;0.93;;
22270;SDS011;11304;53.520;10.104;2024-03-29T03:23:08;4.38;;;0.73;;
22270;SDS011;11304;53.520;10.104;2024-03-29T03:25:34;2.17;;;0.80;;
22270;SDS011;11304;53.520;10.104;2024-03-29T03:28:00;1.23;;;0.68;;
22270;SDS011;11304;53.520;10.104;2024-03-29T03:30:26;2.60;;;0.75;;
22270;SDS011;11304;53.520;10.104;2024-03-29T03:32:52;4.57;;;0.90;;
22270;SDS011;11304;53.520;10.104;2024-03-29T03:35:18;5.38;;;1.10;;
22270;SDS011;11304;53.520;10.104;2024-03-29T03:37:44;3.53;;;1.00;;
22270;SDS011;11304;53.520;10.104;2024-03-29T03:40:10;4.07;;;1.00;;
22270;SDS011;11304;53.520;10.104;2024-03-29T03:42:36;7.20;;;1.05;;
22270;SDS011;11304;53.520;10.104;2024-03-29T03:45:02;1.95;;;0.68;;
22270;SDS011;11304;53.520;10.104;2024-03-29T03:47:28;4.70;;;0.73;;
22270;SDS011;11304;53.520;10.104;2024-03-29T03:49:55;6.95;;;0.88;;
22270;SDS011;11304;53.520;10.104;2024-03-29T03:52:21;6.20;;;0.90;;
22270;SDS011;11304;53.520;10.104;2024-03-29T03:54:47;6.30;;;1.38;;
22270;SDS011;11304;53.520;10.104;2024-03-29T03:57:13;1.88;;;0.60;;
22270;SDS011;11304;53.520;10.104;2024-03-29T03:59:39;3.85;;;0.77;;
22270;SDS011;11304;53.520;10.104;2024-03-29T04:02:05;2.53;;;0.63;;
22270;SDS011;11304;53.520;10.104;2024-03-29T04:04:31;4.28;;;0.77;;
22270;SDS011;11304;53.520;10.104;2024-03-29T04:06:57;5.82;;;1.00;;
22270;SDS011;11304;53.520;10.104;2024-03-29T04:09:23;2.28;;;0.98;;
22270;SDS011;11304;53.520;10.104;2024-03-29T04:11:49;2.58;;;1.10;;
22270;SDS011;11304;53.520;10.104;2024-03-29T04:14:15;1.20;;;0.70;;
22270;SDS011;11304;53.520;10.104;2024-03-29T04:16:41;7.88;;;1.10;;
22270;SDS011;11304;53.520;10.104;2024-03-29T04:19:07;5.05;;;0.95;;
22270;SDS011;11304;53.520;10.104;2024-03-29T04:21:33;3.80;;;1.17;;
22270;SDS011;11304;53.520;10.104;2024-03-29T04:23:59;3.78;;;0.80;;
22270;SDS011;11304;53.520;10.104;2024-03-29T04:26:25;3.45;;;0.90;;
22270;SDS011;11304;53.520;10.104;2024-03-29T04:28:51;6.47;;;0.93;;
22270;SDS011;11304;53.520;10.104;2024-03-29T04:31:17;2.78;;;0.90;;
22270;SDS011;11304;53.520;10.104;2024-03-29T04:33:43;4.03;;;0.85;;
22270;SDS011;11304;53.520;10.104;2024-03-29T04:36:09;5.15;;;0.90;;
22270;SDS011;11304;53.520;10.104;2024-03-29T04:38:35;3.50;;;0.80;;
22270;SDS011;11304;53.520;10.104;2024-03-29T04:41:01;3.50;;;0.85;;
22270;SDS011;11304;53.520;10.104;2024-03-29T04:43:28;6.38;;;0.80;;
22270;SDS011;11304;53.520;10.104;2024-03-29T04:46:13;7.00;;;1.00;;
22270;SDS011;11304;53.520;10.104;2024-03-29T04:48:39;3.70;;;0.90;;
22270;SDS011;11304;53.520;10.104;2024-03-29T04:51:06;2.88;;;0.70;;
22270;SDS011;11304;53.520;10.104;2024-03-29T04:53:32;4.35;;;1.08;;
22270;SDS011;11304;53.520;10.104;2024-03-29T04:55:58;5.80;;;1.02;;
22270;SDS011;11304;53.520;10.104;2024-03-29T04:58:25;1.73;;;0.70;;
22270;SDS011;11304;53.520;10.104;2024-03-29T05:00:51;5.63;;;1.00;;
22270;SDS011;11304;53.520;10.104;2024-03-29T05:03:18;6.45;;;1.00;;
22270;SDS011;11304;53.520;10.104;2024-03-29T05:05:44;3.45;;;1.00;;
22270;SDS011;11304;53.520;10.104;2024-03-29T05:08:10;4.28;;;0.80;;
22270;SDS011;11304;53.520;10.104;2024-03-29T05:10:37;2.20;;;0.60;;
22270;SDS011;11304;53.520;10.104;2024-03-29T05:13:03;4.10;;;0.80;;
22270;SDS011;11304;53.520;10.104;2024-03-29T05:15:29;2.00;;;0.63;;
22270;SDS011;11304;53.520;10.104;2024-03-29T05:17:55;4.22;;;0.80;;
22270;SDS011;11304;53.520;10.104;2024-03-29T05:20:21;2.03;;;0.70;;
22270;SDS011;11304;53.520;10.104;2024-03-29T05:22:47;3.17;;;0.93;;
22270;SDS011;11304;53.520;10.104;2024-03-29T05:25:13;4.55;;;0.77;;
22270;SDS011;11304;53.520;10.104;2024-03-29T05:27:39;2.67;;;0.80;;
22270;SDS011;11304;53.520;10.104;2024-03-29T05:30:05;3.53;;;0.90;;
22270;SDS011;11304;53.520;10.104;2024-03-29T05:32:31;1.88;;;0.80;;
22270;SDS011;11304;53.520;10.104;2024-03-29T05:34:57;2.78;;;0.82;;
22270;SDS011;11304;53.520;10.104;2024-03-29T05:37:23;3.53;;;0.80;;
22270;SDS011;11304;53.520;10.104;2024-03-29T05:39:53;3.05;;;0.90;;
22270;SDS011;11304;53.520;10.104;2024-03-29T05:42:29;3.33;;;0.80;;
22270;SDS011;11304;53.520;10.104;2024-03-29T05:44:55;3.95;;;0.88;;
22270;SDS011;11304;53.520;10.104;2024-03-29T05:47:21;3.92;;;0.77;;
22270;SDS011;11304;53.520;10.104;2024-03-29T05:49:47;6.07;;;1.23;;
22270;SDS011;11304;53.520;10.104;2024-03-29T05:52:14;4.43;;;0.70;;
22270;SDS011;11304;53.520;10.104;2024-03-29T05:54:41;3.97;;;0.80;;
22270;SDS011;11304;53.520;10.104;2024-03-29T05:57:07;1.92;;;0.80;;
22270;SDS011;11304;53.520;10.104;2024-03-29T05:59:33;3.90;;;1.00;;
22270;SDS011;11304;53.520;10.104;2024-03-29T06:01:59;3.40;;;0.90;;
22270;SDS011;11304;53.520;10.104;2024-03-29T06:04:25;5.18;;;1.17;;
22270;SDS011;11304;53.520;10.104;2024-03-29T06:06:58;3.55;;;1.38;;
22270;SDS011;11304;53.520;10.104;2024-03-29T06:09:24;4.40;;;0.90;;
22270;SDS011;11304;53.520;10.104;2024-03-29T06:11:50;3.70;;;0.95;;
22270;SDS011;11304;53.520;10.104;2024-03-29T06:14:16;3.80;;;0.70;;
22270;SDS011;11304;53.520;10.104;2024-03-29T06:17:01;5.18;;;0.90;;
22270;SDS011;11304;53.520;10.104;2024-03-29T06:19:45;1.95;;;0.70;;
22270;SDS011;11304;53.520;10.104;2024-03-29T06:22:13;2.50;;;0.90;;
22270;SDS011;11304;53.520;10.104;2024-03-29T06:24:39;2.88;;;1.10;;
22270;SDS011;11304;53.520;10.104;2024-03-29T06:27:08;2.97;;;0.80;;
22270;SDS011;11304;53.520;10.104;2024-03-29T06:29:34;4.15;;;1.20;;
22270;SDS011;11304;53.520;10.104;2024-03-29T06:32:00;2.33;;;0.60;;
22270;SDS011;11304;53.520;10.104;2024-03-29T06:34:30;5.13;;;0.88;;
22270;SDS011;11304;53.520;10.104;2024-03-29T06:39:22;7.22;;;1.20;;
22270;SDS011;11304;53.520;10.104;2024-03-29T06:41:48;3.13;;;0.90;;
22270;SDS011;11304;53.520;10.104;2024-03-29T06:44:14;2.72;;;1.00;;
22270;SDS011;11304;53.520;10.104;2024-03-29T06:46:40;3.25;;;0.70;;
22270;SDS011;11304;53.520;10.104;2024-03-29T06:49:06;3.60;;;1.23;;
22270;SDS011;11304;53.520;10.104;2024-03-29T06:51:32;2.90;;;1.00;;
22270;SDS011;11304;53.520;10.104;2024-03-29T06:53:58;3.50;;;0.80;;
22270;SDS011;11304;53.520;10.104;2024-03-29T06:56:24;4.85;;;0.90;;
22270;SDS011;11304;53.520;10.104;2024-03-29T06:58:50;3.53;;;1.10;;
22270;SDS011;11304;53.520;10.104;2024-03-29T07:01:16;4.35;;;0.70;;
22270;SDS011;11304;53.520;10.104;2024-03-29T07:03:42;3.40;;;0.88;;
22270;SDS011;11304;53.520;10.104;2024-03-29T07:06:08;3.38;;;0.80;;
22270;SDS011;11304;53.520;10.104;2024-03-29T07:08:34;3.13;;;0.75;;
22270;SDS011;11304;53.520;10.104;2024-03-29T07:11:01;3.70;;;0.95;;
22270;SDS011;11304;53.520;10.104;2024-03-29T07:13:28;2.90;;;0.90;;
22270;SDS011;11304;53.520;10.104;2024-03-29T07:15:58;4.10;;;0.85;;
22270;SDS011;11304;53.520;10.104;2024-03-29T07:18:24;2.70;;;0.50;;
22270;SDS011;11304;53.520;10.104;2024-03-29T07:20:50;2.90;;;0.80;;
22270;SDS011;11304;53.520;10.104;2024-03-29T07:23:16;4.07;;;0.80;;
22270;SDS011;11304;53.520;10.104;2024-03-29T07:25:45;5.07;;;0.95;;
22270;SDS011;11304;53.520;10.104;2024-03-29T07:28:12;2.92;;;0.60;;
22270;SDS011;11304;53.520;10.104;2024-03-29T07:30:41;2.30;;;0.80;;
22270;SDS011;11304;53.520;10.104;2024-03-29T07:33:09;3.80;;;1.15;;
22270;SDS011;11304;53.520;10.104;2024-03-29T07:35:35;1.85;;;0.68;;
22270;SDS011;11304;53.520;10.104;2024-03-29T07:38:06;3.63;;;0.80;;
22270;SDS011;11304;53.520;10.104;2024-03-29T07:40:32;2.72;;;0.80;;
22270;SDS011;11304;53.520;10.104;2024-03-29T07:42:59;2.47;;;0.70;;
22270;SDS011;11304;53.520;10.104;2024-03-29T07:45:25;3.55;;;0.90;;
22270;SDS011;11304;53.520;10.104;2024-03-29T07:47:52;3.60;;;0.60;;
22270;SDS011;11304;53.520;10.104;2024-03-29T07:50:19;5.85;;;0.90;;
22270;SDS011;11304;53.520;10.104;2024-03-29T07:52:45;2.42;;;0.70;;
22270;SDS011;11304;53.520;10.104;2024-03-29T07:55:12;3.47;;;1.05;;
22270;SDS011;11304;53.520;10.104;2024-03-29T07:57:38;4.82;;;1.10;;
22270;SDS011;11304;53.520;10.104;2024-03-29T08:00:04;4.95;;;1.23;;
22270;SDS011;11304;53.520;10.104;2024-03-29T08:02:34;4.47;;;0.98;;
22270;SDS011;11304;53.520;10.104;2024-03-29T08:05:00;3.42;;;0.73;;
22270;SDS011;11304;53.520;10.104;2024-03-29T08:07:26;3.88;;;0.77;;
22270;SDS011;11304;53.520;10.104;2024-03-29T08:09:52;2.83;;;0.73;;
22270;SDS011;11304;53.520;10.104;2024-03-29T08:12:19;4.55;;;0.80;;
22270;SDS011;11304;53.520;10.104;2024-03-29T08:14:45;3.17;;;0.90;;
22270;SDS011;11304;53.520;10.104;2024-03-29T08:17:11;2.30;;;0.80;;
22270;SDS011;11304;53.520;10.104;2024-03-29T08:19:39;4.32;;;0.93;;
22270;SDS011;11304;53.520;10.104;2024-03-29T08:22:07;3.70;;;1.15;;
22270;SDS011;11304;53.520;10.104;2024-03-29T08:24:35;2.58;;;0.68;;
22270;SDS011;11304;53.520;10.104;2024-03-29T08:27:01;3.70;;;0.80;;
22270;SDS011;11304;53.520;10.104;2024-03-29T08:29:27;4.90;;;0.80;;
22270;SDS011;11304;53.520;10.104;2024-03-29T08:31:53;4.43;;;0.60;;
22270;SDS011;11304;53.520;10.104;2024-03-29T08:34:20;1.55;;;0.60;;
22270;SDS011;11304;53.520;10.104;2024-03-29T08:36:46;1.83;;;0.47;;
22270;SDS011;11304;53.520;10.104;2024-03-29T08:39:12;1.90;;;0.60;;
22270;SDS011;11304;53.520;10.104;2024-03-29T08:41:38;1.13;;;0.47;;
22270;SDS011;11304;53.520;10.104;2024-03-29T08:44:05;1.05;;;0.60;;
22270;SDS011;11304;53.520;10.104;2024-03-29T08:46:31;0.90;;;0.68;;
22270;SDS011;11304;53.520;10.104;2024-03-29T08:48:57;2.80;;;0.50;;
22270;SDS011;11304;53.520;10.104;2024-03-29T08:51:23;4.47;;;0.60;;
22270;SDS011;11304;53.520;10.104;2024-03-29T08:53:49;2.92;;;1.00;;
22270;SDS011;11304;53.520;10.104;2024-03-29T08:56:16;2.28;;;0.90;;
22270;SDS011;11304;53.520;10.104;2024-03-29T08:58:42;3.50;;;1.05;;
22270;SDS011;11304;53.520;10.104;2024-03-29T09:01:08;4.35;;;0.98;;
22270;SDS011;11304;53.520;10.104;2024-03-29T09:03:34;1.80;;;0.60;;
22270;SDS011;11304;53.520;10.104;2024-03-29T09:06:00;2.33;;;0.68;;
22270;SDS011;11304;53.520;10.104;2024-03-29T09:08:26;2.55;;;0.75;;
22270;SDS011;11304;53.520;10.104;2024-03-29T09:10:52;1.92;;;0.60;;
22270;SDS011;11304;53.520;10.104;2024-03-29T09:13:18;1.52;;;0.70;;
22270;SDS011;11304;53.520;10.104;2024-03-29T09:15:44;2.63;;;0.80;;
22270;SDS011;11304;53.520;10.104;2024-03-29T09:18:10;3.90;;;0.77;;
22270;SDS011;11304;53.520;10.104;2024-03-29T09:20:55;2.65;;;0.95;;
22270;SDS011;11304;53.520;10.104;2024-03-29T09:23:22;2.55;;;0.88;;
22270;SDS011;11304;53.520;10.104;2024-03-29T09:25:50;2.03;;;0.73;;
22270;SDS011;11304;53.520;10.104;2024-03-29T09:28:16;3.05;;;0.70;;
22270;SDS011;11304;53.520;10.104;2024-03-29T09:30:42;3.03;;;0.88;;
22270;SDS011;11304;53.520;10.104;2024-03-29T09:33:08;3.60;;;0.70;;
22270;SDS011;11304;53.520;10.104;2024-03-29T09:35:36;2.25;;;0.52;;
22270;SDS011;11304;53.520;10.104;2024-03-29T09:38:03;2.08;;;0.60;;
22270;SDS011;11304;53.520;10.104;2024-03-29T09:40:29;3.85;;;0.75;;
22270;SDS011;11304;53.520;10.104;2024-03-29T09:42:56;4.07;;;0.77;;
22270;SDS011;11304;53.520;10.104;2024-03-29T09:45:37;2.05;;;0.60;;
22270;SDS011;11304;53.520;10.104;2024-03-29T09:48:03;1.88;;;0.60;;
22270;SDS011;11304;53.520;10.104;2024-03-29T09:50:33;3.38;;;0.90;;
22270;SDS011;11304;53.520;10.104;2024-03-29T09:53:00;3.30;;;1.17;;
22270;SDS011;11304;53.520;10.104;2024-03-29T09:55:27;4.40;;;1.35;;
22270;SDS011;11304;53.520;10.104;2024-03-29T09:57:54;3.15;;;0.90;;
22270;SDS011;11304;53.520;10.104;2024-03-29T10:00:20;2.90;;;1.15;;
22270;SDS011;11304;53.520;10.104;2024-03-29T10:02:46;4.05;;;1.08;;
22270;SDS011;11304;53.520;10.104;2024-03-29T10:05:15;3.08;;;0.73;;
22270;SDS011;11304;53.520;10.104;2024-03-29T10:07:41;1.50;;;0.75;;
22270;SDS011;11304;53.520;10.104;2024-03-29T10:10:09;4.78;;;0.80;;
22270;SDS011;11304;53.520;10.104;2024-03-29T10:12:36;4.07;;;0.93;;
22270;SDS011;11304;53.520;10.104;2024-03-29T10:15:02;2.78;;;0.77;;
22270;SDS011;11304;53.520;10.104;2024-03-29T10:17:39;3.20;;;0.82;;
22270;SDS011;11304;53.520;10.104;2024-03-29T10:20:06;2.60;;;1.10;;
22270;SDS011;11304;53.520;10.104;2024-03-29T10:22:41;3.00;;;0.90;;
22270;SDS011;11304;53.520;10.104;2024-03-29T10:25:09;3.58;;;1.02;;
22270;SDS011;11304;53.520;10.104;2024-03-29T10:27:35;3.83;;;0.90;;
22270;SDS011;11304;53.520;10.104;2024-03-29T10:30:01;2.83;;;0.75;;
22270;SDS011;11304;53.520;10.104;2024-03-29T10:32:28;1.88;;;0.80;;
22270;SDS011;11304;53.520;10.104;2024-03-29T10:34:55;2.20;;;0.90;;
22270;SDS011;11304;53.520;10.104;2024-03-29T10:37:21;2.88;;;0.80;;
22270;SDS011;11304;53.520;10.104;2024-03-29T10:39:54;2.78;;;1.30;;
22270;SDS011;11304;53.520;10.104;2024-03-29T10:42:23;3.88;;;0.90;;
22270;SDS011;11304;53.520;10.104;2024-03-29T10:44:52;3.30;;;0.98;;
22270;SDS011;11304;53.520;10.104;2024-03-29T10:47:19;3.70;;;1.23;;
22270;SDS011;11304;53.520;10.104;2024-03-29T10:49:47;2.55;;;1.00;;
22270;SDS011;11304;53.520;10.104;2024-03-29T10:52:15;4.05;;;1.25;;
22270;SDS011;11304;53.520;10.104;2024-03-29T10:54:45;3.80;;;1.13;;
22270;SDS011;11304;53.520;10.104;2024-03-29T10:57:14;4.30;;;1.40;;
22270;SDS011;11304;53.520;10.104;2024-03-29T10:59:44;4.35;;;1.30;;
22270;SDS011;11304;53.520;10.104;2024-03-29T11:02:17;4.63;;;1.40;;
22270;SDS011;11304;53.520;10.104;2024-03-29T11:04:48;3.85;;;1.50;;
22270;SDS011;11304;53.520;10.104;2024-03-29T11:07:17;7.20;;;2.08;;
22270;SDS011;11304;53.520;10.104;2024-03-29T11:09:47;4.57;;;1.70;;
22270;SDS011;11304;53.520;10.104;2024-03-29T11:12:16;4.78;;;1.42;;
22270;SDS011;11304;53.520;10.104;2024-03-29T11:14:45;5.20;;;1.70;;
22270;SDS011;11304;53.520;10.104;2024-03-29T11:17:13;7.10;;;2.25;;
22270;SDS011;11304;53.520;10.104;2024-03-29T11:19:39;5.55;;;1.60;;
22270;SDS011;11304;53.520;10.104;2024-03-29T11:22:05;4.75;;;2.13;;
22270;SDS011;11304;53.520;10.104;2024-03-29T11:24:32;6.00;;;2.20;;
22270;SDS011;11304;53.520;10.104;2024-03-29T11:27:06;4.88;;;2.13;;
22270;SDS011;11304;53.520;10.104;2024-03-29T11:29:32;4.82;;;1.75;;
22270;SDS011;11304;53.520;10.104;2024-03-29T11:32:03;5.20;;;1.48;;
22270;SDS011;11304;53.520;10.104;2024-03-29T11:34:32;3.65;;;1.70;;
22270;SDS011;11304;53.520;10.104;2024-03-29T11:37:11;3.38;;;0.93;;
22270;SDS011;11304;53.520;10.104;2024-03-29T11:39:46;3.08;;;1.23;;
22270;SDS011;11304;53.520;10.104;2024-03-29T11:42:12;3.30;;;1.05;;
22270;SDS011;11304;53.520;10.104;2024-03-29T11:44:39;1.85;;;0.73;;
22270;SDS011;11304;53.520;10.104;2024-03-29T11:47:05;4.07;;;1.02;;
22270;SDS011;11304;53.520;10.104;2024-03-29T11:49:32;2.45;;;1.10;;
22270;SDS011;11304;53.520;10.104;2024-03-29T11:52:02;4.22;;;1.60;;
22270;SDS011;11304;53.520;10.104;2024-03-29T11:54:28;3.70;;;1.38;;
22270;SDS011;11304;53.520;10.104;2024-03-29T11:56:54;6.25;;;1.67;;
22270;SDS011;11304;53.520;10.104;2024-03-29T11:59:21;6.40;;;1.55;;
22270;SDS011;11304;53.520;10.104;2024-03-29T12:01:47;6.40;;;3.45;;
22270;SDS011;11304;53.520;10.104;2024-03-29T12:04:20;5.00;;;2.60;;
22270;SDS011;11304;53.520;10.104;2024-03-29T12:06:46;6.35;;;2.80;;
22270;SDS011;11304;53.520;10.104;2024-03-29T12:09:13;5.65;;;2.30;;
22270;SDS011;11304;53.520;10.104;2024-03-29T12:11:39;3.63;;;1.73;;
22270;SDS011;11304;53.520;10.104;2024-03-29T12:14:11;4.93;;;2.60;;
22270;SDS011;11304;53.520;10.104;2024-03-29T12:16:44;2.20;;;1.33;;
22270;SDS011;11304;53.520;10.104;2024-03-29T12:19:21;2.38;;;0.90;;
22270;SDS011;11304;53.520;10.104;2024-03-29T12:21:47;5.32;;;1.38;;
22270;SDS011;11304;53.520;10.104;2024-03-29T12:24:13;3.40;;;1.35;;
22270;SDS011;11304;53.520;10.104;2024-03-29T12:26:40;5.05;;;1.40;;
22270;SDS011;11304;53.520;10.104;2024-03-29T12:29:07;7.15;;;1.40;;
22270;SDS011;11304;53.520;10.104;2024-03-29T12:31:33;4.25;;;1.50;;
22270;SDS011;11304;53.520;10.104;2024-03-29T12:34:00;6.40;;;1.85;;
22270;SDS011;11304;53.520;10.104;2024-03-29T12:36:27;4.45;;;1.27;;
22270;SDS011;11304;53.520;10.104;2024-03-29T12:38:54;3.17;;;1.38;;
22270;SDS011;11304;53.520;10.104;2024-03-29T12:41:23;3.90;;;2.28;;
22270;SDS011;11304;53.520;10.104;2024-03-29T12:43:53;4.20;;;1.88;;
22270;SDS011;11304;53.520;10.104;2024-03-29T12:46:19;2.72;;;1.58;;
22270;SDS011;11304;53.520;10.104;2024-03-29T12:48:45;13.32;;;5.63;;
22270;SDS011;11304;53.520;10.104;2024-03-29T12:51:11;17.75;;;7.78;;
22270;SDS011;11304;53.520;10.104;2024-03-29T12:53:38;16.23;;;6.78;;
22270;SDS011;11304;53.520;10.104;2024-03-29T12:56:04;9.10;;;3.55;;
22270;SDS011;11304;53.520;10.104;2024-03-29T12:58:30;7.32;;;2.85;;
22270;SDS011;11304;53.520;10.104;2024-03-29T13:00:56;16.02;;;8.32;;
22270;SDS011;11304;53.520;10.104;2024-03-29T13:03:22;4.80;;;1.90;;
22270;SDS011;11304;53.520;10.104;2024-03-29T13:05:48;5.57;;;3.30;;
22270;SDS011;11304;53.520;10.104;2024-03-29T13:08:15;4.88;;;2.50;;
22270;SDS011;11304;53.520;10.104;2024-03-29T13:10:41;4.22;;;2.53;;
22270;SDS011;11304;53.520;10.104;2024-03-29T13:13:07;4.47;;;2.17;;
22270;SDS011;11304;53.520;10.104;2024-03-29T13:15:34;3.47;;;1.70;;
22270;SDS011;11304;53.520;10.104;2024-03-29T13:18:01;5.47;;;1.98;;
22270;SDS011;11304;53.520;10.104;2024-03-29T13:20:28;3.97;;;2.38;;
22270;SDS011;11304;53.520;10.104;2024-03-29T13:22:55;3.03;;;1.05;;
22270;SDS011;11304;53.520;10.104;2024-03-29T13:25:22;6.28;;;2.85;;
22270;SDS011;11304;53.520;10.104;2024-03-29T13:27:52;3.50;;;1.10;;
22270;SDS011;11304;53.520;10.104;2024-03-29T13:30:20;3.20;;;1.27;;
22270;SDS011;11304;53.520;10.104;2024-03-29T13:32:46;1.58;;;0.77;;
22270;SDS011;11304;53.520;10.104;2024-03-29T13:35:13;3.08;;;1.10;;
22270;SDS011;11304;53.520;10.104;2024-03-29T13:37:40;1.27;;;0.60;;
22270;SDS011;11304;53.520;10.104;2024-03-29T13:40:08;3.95;;;1.20;;
22270;SDS011;11304;53.520;10.104;2024-03-29T13:42:35;3.15;;;0.82;;
22270;SDS011;11304;53.520;10.104;2024-03-29T13:45:01;3.38;;;1.00;;
22270;SDS011;11304;53.520;10.104;2024-03-29T13:47:27;1.42;;;0.80;;
22270;SDS011;11304;53.520;10.104;2024-03-29T13:49:53;1.55;;;0.80;;
22270;SDS011;11304;53.520;10.104;2024-03-29T13:52:21;2.97;;;1.20;;
22270;SDS011;11304;53.520;10.104;2024-03-29T13:54:47;2.28;;;0.98;;
22270;SDS011;11304;53.520;10.104;2024-03-29T13:57:15;3.33;;;0.80;;
22270;SDS011;11304;53.520;10.104;2024-03-29T13:59:45;1.38;;;0.70;;
22270;SDS011;11304;53.520;10.104;2024-03-29T14:02:11;5.05;;;1.70;;
22270;SDS011;11304;53.520;10.104;2024-03-29T14:04:38;2.20;;;1.10;;
22270;SDS011;11304;53.520;10.104;2024-03-29T14:07:05;3.72;;;0.93;;
22270;SDS011;11304;53.520;10.104;2024-03-29T14:09:34;1.73;;;0.98;;
22270;SDS011;11304;53.520;10.104;2024-03-29T14:12:00;1.27;;;0.73;;
22270;SDS011;11304;53.520;10.104;2024-03-29T14:14:27;3.80;;;1.58;;
22270;SDS011;11304;53.520;10.104;2024-03-29T14:16:53;2.15;;;0.80;;
22270;SDS011;11304;53.520;10.104;2024-03-29T14:19:19;2.00;;;1.20;;
22270;SDS011;11304;53.520;10.104;2024-03-29T14:21:45;3.00;;;0.55;;
22270;SDS011;11304;53.520;10.104;2024-03-29T14:24:11;3.47;;;1.38;;
22270;SDS011;11304;53.520;10.104;2024-03-29T14:26:37;2.53;;;1.40;;
22270;SDS011;11304;53.520;10.104;2024-03-29T14:29:04;3.60;;;2.20;;
22270;SDS011;11304;53.520;10.104;2024-03-29T14:31:31;3.50;;;1.33;;
22270;SDS011;11304;53.520;10.104;2024-03-29T14:33:57;2.95;;;1.70;;
22270;SDS011;11304;53.520;10.104;2024-03-29T14:36:23;5.63;;;3.28;;
22270;SDS011;11304;53.520;10.104;2024-03-29T14:38:50;3.67;;;2.40;;